createdAt,value
2018-10-12T00:00:20.696Z,17.6
2018-10-12T00:01:11.388Z,17.5
2018-10-12T00:02:01.127Z,17.5
2018-10-12T00:02:50.911Z,17.6
2018-10-12T00:03:41.032Z,17.6
2018-10-12T00:04:30.781Z,17.5
2018-10-12T00:05:20.867Z,17.6
2018-10-12T00:06:11.912Z,17.6
2018-10-12T00:25:18.548Z,17.5
2018-10-12T00:26:08.665Z,17.5
2018-10-12T00:26:58.026Z,17.5
2018-10-12T00:27:48.977Z,17.5
2018-10-12T00:28:38.540Z,17.5
2018-10-12T00:29:28.629Z,17.5
2018-10-12T00:30:19.219Z,17.5
2018-10-12T00:31:09.338Z,17.5
2018-10-12T00:31:58.570Z,17.5
2018-10-12T00:32:48.813Z,17.5
2018-10-12T00:33:39.199Z,17.5
2018-10-12T00:34:29.317Z,17.5
2018-10-12T00:35:19.709Z,17.5
2018-10-12T00:36:09.353Z,17.5
2018-10-12T00:36:58.877Z,17.5
2018-10-12T00:37:49.780Z,17.5
2018-10-12T00:38:39.282Z,17.5
2018-10-12T00:39:28.502Z,17.5
2018-10-12T00:40:19.365Z,17.5
2018-10-12T00:41:09.446Z,17.5
2018-10-12T00:41:59.882Z,17.5
2018-10-12T00:42:49.569Z,17.5
2018-10-12T00:43:39.342Z,17.5
2018-10-12T00:44:29.737Z,17.5
2018-10-12T00:45:19.774Z,17.5
2018-10-12T00:46:10.666Z,17.5
2018-10-12T00:46:59.885Z,17.5
2018-10-12T00:47:49.821Z,17.5
2018-10-12T00:48:40.707Z,17.5
2018-10-12T00:49:29.461Z,17.5
2018-10-12T00:50:20.429Z,17.5
2018-10-12T00:51:10.462Z,17.5
2018-10-12T00:52:00.562Z,17.5
2018-10-12T00:52:50.603Z,17.5
2018-10-12T00:53:40.439Z,17.4
2018-10-12T00:54:30.734Z,17.5
2018-10-12T00:55:20.856Z,17.5
2018-10-12T00:56:10.543Z,17.5
2018-10-12T00:57:00.098Z,17.5
2018-10-12T00:57:51.020Z,17.5
2018-10-12T00:58:40.183Z,17.5
2018-10-12T00:59:31.354Z,17.5
2018-10-12T01:00:20.887Z,17.5
2018-10-12T01:01:11.186Z,17.5
2018-10-12T01:02:00.459Z,17.5
2018-10-12T01:02:51.389Z,17.4
2018-10-12T01:03:40.866Z,17.4
2018-10-12T01:04:31.751Z,17.5
2018-10-12T01:05:21.256Z,17.5
2018-10-12T01:06:11.802Z,17.5
2018-10-12T01:07:01.113Z,17.5
2018-10-12T01:07:51.413Z,17.5
2018-10-12T01:08:41.510Z,17.5
2018-10-12T01:09:31.564Z,17.4
2018-10-12T01:10:22.174Z,17.4
2018-10-12T01:11:11.428Z,17.4
2018-10-12T01:12:02.258Z,17.5
2018-10-12T01:12:51.541Z,17.4
2018-10-12T01:13:41.573Z,17.4
2018-10-12T01:14:31.740Z,17.4
2018-10-12T01:15:22.034Z,17.5
2018-10-12T01:16:12.110Z,17.4
2018-10-12T01:17:02.338Z,17.5
2018-10-12T01:17:52.440Z,17.4
2018-10-12T01:18:42.530Z,17.5
2018-10-12T01:19:32.557Z,17.5
2018-10-12T01:20:22.610Z,17.5
2018-10-12T01:21:12.105Z,17.5
2018-10-12T01:22:03.324Z,17.5
2018-10-12T01:22:53.107Z,17.4
2018-10-12T01:23:42.360Z,17.5
2018-10-12T01:24:32.740Z,17.5
2018-10-12T01:25:23.000Z,17.4
2018-10-12T01:26:13.139Z,17.5
2018-10-12T01:27:03.164Z,17.5
2018-10-12T01:27:52.686Z,17.5
2018-10-12T01:28:42.137Z,17.5
2018-10-12T01:29:33.076Z,17.5
2018-10-12T01:30:23.447Z,17.4
2018-10-12T01:31:13.189Z,17.4
2018-10-12T01:32:02.424Z,17.4
2018-10-12T01:32:53.041Z,17.4
2018-10-12T01:33:42.786Z,17.4
2018-10-12T01:34:33.196Z,17.4
2018-10-12T01:35:23.460Z,17.5
2018-10-12T01:36:12.722Z,17.4
2018-10-12T01:37:04.177Z,17.4
2018-10-12T01:37:54.178Z,17.4
2018-10-12T01:38:43.731Z,17.4
2018-10-12T01:39:34.413Z,17.4
2018-10-12T01:40:23.031Z,17.4
2018-10-12T01:41:13.035Z,17.4
2018-10-12T01:42:03.768Z,17.4
2018-10-12T01:42:54.533Z,17.4
2018-10-12T01:43:43.829Z,17.4
2018-10-12T01:44:33.665Z,17.4
2018-10-12T01:45:24.794Z,17.4
2018-10-12T01:46:13.968Z,17.4
2018-10-12T01:47:04.291Z,17.4
2018-10-12T01:47:54.640Z,17.4
2018-10-12T01:48:44.220Z,17.4
2018-10-12T01:49:34.838Z,17.4
2018-10-12T01:50:24.892Z,17.4
2018-10-12T01:51:14.134Z,17.4
2018-10-12T01:52:04.742Z,17.4
2018-10-12T01:52:54.840Z,17.4
2018-10-12T01:53:44.853Z,17.4
2018-10-12T01:54:34.330Z,17.4
2018-10-12T01:55:25.212Z,17.4
2018-10-12T01:56:15.588Z,17.4
2018-10-12T01:57:04.523Z,17.4
2018-10-12T01:57:55.728Z,17.4
2018-10-12T01:58:45.512Z,17.4
2018-10-12T01:59:35.312Z,17.4
2018-10-12T02:00:25.653Z,17.4
2018-10-12T02:01:15.675Z,17.4
2018-10-12T02:02:05.172Z,17.4
2018-10-12T02:02:55.312Z,17.4
2018-10-12T02:03:45.923Z,17.4
2018-10-12T02:04:35.382Z,17.4
2018-10-12T02:05:24.848Z,17.4
2018-10-12T02:06:16.048Z,17.4
2018-10-12T02:07:06.420Z,17.4
2018-10-12T02:07:55.554Z,17.4
2018-10-12T02:08:46.217Z,17.4
2018-10-12T02:09:36.050Z,17.4
2018-10-12T02:10:25.836Z,17.4
2018-10-12T02:11:16.167Z,17.4
2018-10-12T02:12:06.203Z,17.4
2018-10-12T02:12:56.797Z,17.4
2018-10-12T02:13:45.537Z,17.4
2018-10-12T02:14:36.968Z,17.4
2018-10-12T02:15:26.141Z,17.4
2018-10-12T02:16:16.857Z,17.4
2018-10-12T02:17:06.072Z,17.4
2018-10-12T02:17:57.411Z,17.4
2018-10-12T02:18:46.429Z,17.4
2018-10-12T02:19:37.116Z,17.4
2018-10-12T02:20:26.195Z,17.4
2018-10-12T02:21:16.656Z,17.4
2018-10-12T02:22:06.660Z,17.4
2018-10-12T02:22:57.976Z,17.4
2018-10-12T02:23:47.051Z,17.4
2018-10-12T02:24:37.424Z,17.4
2018-10-12T02:25:26.943Z,17.4
2018-10-12T02:26:17.546Z,17.4
2018-10-12T02:27:07.876Z,17.4
2018-10-12T02:27:57.079Z,17.4
2018-10-12T02:28:47.666Z,17.4
2018-10-12T02:29:38.018Z,17.4
2018-10-12T02:30:28.210Z,17.4
2018-10-12T02:31:17.671Z,17.4
2018-10-12T02:32:08.013Z,17.4
2018-10-12T02:32:57.516Z,17.4
2018-10-12T02:33:47.821Z,17.4
2018-10-12T02:34:38.160Z,17.4
2018-10-12T02:35:27.923Z,17.4
2018-10-12T02:36:17.746Z,17.4
2018-10-12T02:37:08.386Z,17.4
2018-10-12T02:37:58.414Z,17.4
2018-10-12T02:38:47.127Z,17.4
2018-10-12T02:39:38.553Z,17.4
2018-10-12T02:40:28.081Z,17.4
2018-10-12T02:41:18.408Z,17.4
2018-10-12T02:42:08.966Z,17.4
2018-10-12T02:42:58.795Z,17.4
2018-10-12T02:43:48.786Z,17.4
2018-10-12T02:44:38.616Z,17.4
2018-10-12T02:45:28.392Z,17.4
2018-10-12T02:46:19.010Z,17.4
2018-10-12T02:47:09.453Z,17.4
2018-10-12T02:47:58.872Z,17.4
2018-10-12T02:48:48.635Z,17.4
2018-10-12T02:49:38.743Z,17.4
2018-10-12T02:50:28.790Z,17.4
2018-10-12T02:51:18.855Z,17.4
2018-10-12T02:52:08.624Z,17.4
2018-10-12T02:52:58.697Z,17.4
2018-10-12T02:53:49.600Z,17.4
2018-10-12T02:54:39.896Z,17.4
2018-10-12T02:55:30.029Z,17.4
2018-10-12T02:56:19.502Z,17.4
2018-10-12T02:57:09.591Z,17.4
2018-10-12T02:57:59.892Z,17.4
2018-10-12T02:58:50.032Z,17.4
2018-10-12T02:59:39.780Z,17.4
2018-10-12T03:00:30.139Z,17.4
2018-10-12T03:01:19.336Z,17.4
2018-10-12T03:02:10.306Z,17.4
2018-10-12T03:02:59.241Z,17.4
2018-10-12T03:03:50.668Z,17.4
2018-10-12T03:04:40.859Z,17.4
2018-10-12T03:05:30.574Z,17.4
2018-10-12T03:06:21.111Z,17.4
2018-10-12T03:07:10.026Z,17.4
2018-10-12T03:08:00.112Z,17.4
2018-10-12T03:08:50.986Z,17.4
2018-10-12T03:09:40.814Z,17.4
2018-10-12T03:10:30.826Z,17.4
2018-10-12T03:11:20.893Z,17.4
2018-10-12T03:12:11.023Z,17.4
2018-10-12T03:13:00.475Z,17.4
2018-10-12T03:13:51.061Z,17.4
2018-10-12T03:14:41.359Z,17.4
2018-10-12T03:15:30.618Z,17.4
2018-10-12T03:16:20.176Z,17.4
2018-10-12T03:17:11.622Z,17.4
2018-10-12T03:18:00.848Z,17.4
2018-10-12T03:18:51.521Z,17.4
2018-10-12T03:19:41.175Z,17.4
2018-10-12T03:20:31.069Z,17.4
2018-10-12T03:21:21.097Z,17.4
2018-10-12T03:22:11.464Z,17.4
2018-10-12T03:23:01.980Z,17.4
2018-10-12T03:23:51.862Z,17.4
2018-10-12T03:24:41.048Z,17.4
2018-10-12T03:25:32.282Z,17.3
2018-10-12T03:26:21.199Z,17.4
2018-10-12T03:27:10.810Z,17.4
2018-10-12T03:28:01.601Z,17.4
2018-10-12T03:28:51.405Z,17.4
2018-10-12T03:29:42.542Z,17.4
2018-10-12T03:30:32.632Z,17.4
2018-10-12T03:31:22.757Z,17.4
2018-10-12T03:32:12.035Z,17.4
2018-10-12T03:33:01.897Z,17.4
2018-10-12T03:33:52.574Z,17.4
2018-10-12T03:34:41.765Z,17.4
2018-10-12T03:35:32.135Z,17.4
2018-10-12T03:36:22.511Z,17.4
2018-10-12T03:37:12.715Z,17.3
2018-10-12T03:38:03.117Z,17.4
2018-10-12T03:38:52.574Z,17.4
2018-10-12T03:39:42.769Z,17.4
2018-10-12T03:40:32.813Z,17.3
2018-10-12T03:41:22.872Z,16.9
2018-10-12T03:42:13.172Z,16.6
2018-10-12T03:43:02.986Z,16.6
2018-10-12T03:43:52.459Z,16.7
2018-10-12T03:44:43.401Z,16.8
2018-10-12T03:45:32.822Z,16.8
2018-10-12T03:46:22.078Z,16.8
2018-10-12T03:47:13.298Z,16.9
2018-10-12T03:48:02.746Z,16.9
2018-10-12T03:48:53.964Z,16.9
2018-10-12T03:49:43.166Z,16.9
2018-10-12T03:52:13.670Z,17.1
2018-10-12T03:53:03.433Z,17.1
2018-10-12T03:53:53.244Z,17.1
2018-10-12T03:54:44.366Z,17.1
2018-10-12T03:55:33.873Z,17.1
2018-10-12T03:56:23.131Z,17.1
2018-10-12T03:57:14.258Z,17.1
2018-10-12T03:58:04.021Z,17.1
2018-10-12T03:58:53.565Z,17.1
2018-10-12T03:59:43.065Z,17.1
2018-10-12T04:00:33.687Z,17.1
2018-10-12T04:01:23.756Z,17.1
2018-10-12T04:02:14.391Z,17.1
2018-10-12T04:03:04.948Z,17.1
2018-10-12T04:03:54.785Z,17.1
2018-10-12T04:04:44.260Z,17.1
2018-10-12T04:05:34.971Z,17.1
2018-10-12T04:06:24.225Z,17.1
2018-10-12T04:07:14.526Z,17.1
2018-10-12T04:08:04.866Z,17.1
2018-10-12T04:08:54.240Z,17.2
2018-10-12T04:09:44.715Z,17.1
2018-10-12T04:10:34.197Z,17.1
2018-10-12T04:11:24.865Z,17.2
2018-10-12T04:12:15.051Z,17.1
2018-10-12T04:13:05.491Z,17.1
2018-10-12T04:13:55.593Z,17.1
2018-10-12T04:14:44.478Z,17.1
2018-10-12T04:15:35.650Z,17.1
2018-10-12T04:16:25.460Z,17.1
2018-10-12T04:17:16.053Z,17.1
2018-10-12T04:18:05.822Z,17.1
2018-10-12T04:18:55.640Z,17.1
2018-10-12T04:19:45.985Z,17.1
2018-10-12T04:20:35.991Z,17.1
2018-10-12T04:21:26.087Z,17.1
2018-10-12T04:22:16.413Z,17.1
2018-10-12T04:23:06.759Z,17.1
2018-10-12T04:23:55.432Z,17.1
2018-10-12T04:24:46.106Z,17.1
2018-10-12T04:25:36.441Z,17.1
2018-10-12T04:26:26.415Z,17.1
2018-10-12T04:27:14.185Z,17.1
2018-10-12T04:28:06.279Z,17.1
2018-10-12T04:28:56.617Z,17.1
2018-10-12T04:29:47.196Z,17.1
2018-10-12T04:30:36.814Z,17.1
2018-10-12T04:31:26.279Z,17.1
2018-10-12T04:32:16.858Z,17.1
2018-10-12T04:33:06.459Z,17.1
2018-10-12T04:33:57.036Z,17.1
2018-10-12T04:34:46.184Z,17.1
2018-10-12T04:35:36.554Z,17.1
2018-10-12T04:36:27.217Z,17.1
2018-10-12T04:54:36.401Z,17.1
2018-10-12T04:55:26.511Z,17.1
2018-10-12T04:56:15.951Z,17.1
2018-10-12T04:57:06.028Z,17.1
2018-10-12T04:57:56.931Z,17.1
2018-10-12T04:58:46.684Z,17.1
2018-10-12T04:59:36.791Z,17.1
2018-10-12T05:00:26.230Z,17.1
2018-10-12T05:01:19.016Z,17.1
2018-10-12T05:02:06.922Z,17.1
2018-10-12T05:02:57.202Z,17.1
2018-10-12T05:03:46.807Z,17.1
2018-10-12T05:04:37.375Z,17.1
2018-10-12T05:05:26.280Z,17.1
2018-10-12T05:06:16.040Z,17.1
2018-10-12T05:07:07.560Z,17.1
2018-10-12T05:07:58.000Z,17.1
2018-10-12T05:08:46.304Z,17.1
2018-10-12T05:09:37.702Z,17.1
2018-10-12T05:10:27.557Z,17.1
2018-10-12T05:11:17.624Z,17.1
2018-10-12T05:12:08.027Z,17.1
2018-10-12T05:12:57.765Z,17.1
2018-10-12T05:13:47.493Z,17.1
2018-10-12T05:14:37.452Z,17.1
2018-10-12T05:15:27.849Z,17.1
2018-10-12T05:16:17.934Z,17.1
2018-10-12T05:17:07.194Z,17.1
2018-10-12T05:17:58.069Z,17.1
2018-10-12T05:18:47.629Z,17.1
2018-10-12T05:19:38.219Z,17.1
2018-10-12T05:20:27.434Z,17.1
2018-10-12T05:21:18.870Z,17.1
2018-10-12T05:22:11.320Z,17.1
2018-10-12T05:22:57.934Z,17.1
2018-10-12T05:23:47.993Z,17.1
2018-10-12T05:24:37.749Z,17.1
2018-10-12T05:25:28.338Z,17.1
2018-10-12T05:26:18.375Z,17.1
2018-10-12T05:27:08.779Z,17.1
2018-10-12T05:27:58.600Z,17.1
2018-10-12T05:28:49.194Z,17.1
2018-10-12T05:29:39.219Z,17.1
2018-10-12T05:30:29.847Z,17.1
2018-10-12T05:31:18.168Z,17.1
2018-10-12T05:32:08.051Z,17.1
2018-10-12T05:32:59.249Z,17.1
2018-10-12T05:33:48.976Z,17.1
2018-10-12T05:34:39.312Z,17.1
2018-10-12T05:35:29.111Z,17.1
2018-10-12T05:36:19.508Z,17.1
2018-10-12T05:37:08.965Z,17.1
2018-10-12T05:37:59.542Z,17.1
2018-10-12T05:38:49.658Z,17.1
2018-10-12T05:39:39.094Z,17.1
2018-10-12T05:40:29.761Z,17.1
2018-10-12T05:41:20.431Z,17.1
2018-10-12T05:42:09.284Z,17.1
2018-10-12T05:43:01.926Z,17.1
2018-10-12T05:43:52.011Z,17.1
2018-10-12T05:44:39.518Z,17.1
2018-10-12T05:45:29.557Z,17.1
2018-10-12T05:46:19.291Z,17.1
2018-10-12T05:47:10.546Z,17.1
2018-10-12T05:48:00.019Z,17.1
2018-10-12T05:48:51.002Z,17.1
2018-10-12T05:49:39.006Z,17.1
2018-10-12T05:50:29.921Z,17.1
2018-10-12T05:51:20.501Z,17.1
2018-10-12T05:52:11.181Z,17.1
2018-10-12T05:52:59.556Z,17.1
2018-10-12T05:53:50.793Z,17.1
2018-10-12T05:54:40.825Z,17.1
2018-10-12T05:55:30.554Z,17.1
2018-10-12T05:56:21.411Z,17.1
2018-10-12T05:57:10.876Z,17.1
2018-10-12T05:58:01.030Z,17.1
2018-10-12T05:58:50.548Z,17.1
2018-10-12T05:59:41.215Z,17.1
2018-10-12T06:00:30.933Z,17.1
2018-10-12T06:01:22.605Z,17.1
2018-10-12T06:02:11.948Z,17.1
2018-10-12T06:03:01.197Z,17.1
2018-10-12T06:03:50.922Z,17.1
2018-10-12T06:04:41.643Z,17.1
2018-10-12T06:05:31.397Z,17.1
2018-10-12T06:06:20.280Z,17.1
2018-10-12T06:07:12.255Z,17.1
2018-10-12T06:08:01.655Z,17.1
2018-10-12T06:08:51.959Z,17.2
2018-10-12T06:09:42.685Z,17.1
2018-10-12T06:10:31.217Z,17.2
2018-10-12T06:11:21.827Z,17.2
2018-10-12T06:12:12.110Z,17.1
2018-10-12T06:13:01.615Z,17.2
2018-10-12T06:13:51.715Z,17.2
2018-10-12T06:14:42.347Z,17.2
2018-10-12T06:15:32.739Z,17.2
2018-10-12T06:16:22.150Z,17.2
2018-10-12T06:17:12.444Z,17.1
2018-10-12T06:18:03.082Z,17.2
2018-10-12T06:18:52.629Z,17.2
2018-10-12T06:19:42.369Z,17.1
2018-10-12T06:20:32.489Z,17.2
2018-10-12T06:21:22.853Z,17.1
2018-10-12T06:22:12.559Z,17.2
2018-10-12T06:23:03.206Z,17.2
2018-10-12T06:23:52.455Z,17.2
2018-10-12T06:24:43.036Z,17.2
2018-10-12T06:25:33.190Z,17.2
2018-10-12T06:26:23.396Z,17.2
2018-10-12T06:27:13.808Z,17.2
2018-10-12T06:28:02.988Z,17.2
2018-10-12T06:28:53.026Z,17.2
2018-10-12T06:29:43.756Z,17.2
2018-10-12T06:30:32.344Z,17.2
2018-10-12T06:31:22.931Z,17.2
2018-10-12T06:32:13.794Z,17.2
2018-10-12T06:33:06.332Z,17.2
2018-10-12T06:33:52.867Z,17.2
2018-10-12T06:34:43.199Z,17.2
2018-10-12T06:35:33.551Z,17.2
2018-10-12T06:36:23.874Z,17.2
2018-10-12T06:37:14.208Z,17.2
2018-10-12T06:38:03.960Z,17.2
2018-10-12T06:38:53.810Z,17.2
2018-10-12T06:39:43.830Z,17.2
2018-10-12T06:40:33.101Z,17.2
2018-10-12T06:41:27.092Z,17.2
2018-10-12T06:42:14.341Z,17.2
2018-10-12T06:43:03.756Z,17.2
2018-10-12T06:43:54.203Z,17.2
2018-10-12T06:44:44.258Z,17.2
2018-10-12T06:45:34.128Z,17.2
2018-10-12T06:46:25.199Z,17.2
2018-10-12T06:47:15.030Z,17.2
2018-10-12T06:48:04.986Z,17.2
2018-10-12T06:48:54.281Z,17.2
2018-10-12T06:49:44.379Z,17.2
2018-10-12T06:50:32.112Z,17.2
2018-10-12T06:51:24.648Z,17.2
2018-10-12T06:52:14.787Z,17.2
2018-10-12T06:53:05.185Z,17.2
2018-10-12T06:53:56.029Z,17.2
2018-10-12T06:54:45.583Z,17.2
2018-10-12T06:55:34.752Z,17.2
2018-10-12T06:56:25.458Z,17.2
2018-10-12T06:57:15.187Z,17.2
2018-10-12T06:58:06.045Z,17.2
2018-10-12T06:58:55.582Z,17.2
2018-10-12T06:59:45.534Z,17.2
2018-10-12T07:00:34.581Z,17.2
2018-10-12T07:01:25.562Z,17.2
2018-10-12T07:02:16.059Z,17.2
2018-10-12T07:03:05.511Z,17.2
2018-10-12T07:03:55.691Z,17.2
2018-10-12T07:04:45.945Z,17.2
2018-10-12T07:05:37.040Z,17.2
2018-10-12T07:06:26.169Z,17.2
2018-10-12T07:07:15.906Z,17.2
2018-10-12T07:08:06.771Z,17.2
2018-10-12T07:08:56.559Z,17.3
2018-10-12T07:09:44.638Z,17.2
2018-10-12T07:10:36.139Z,17.2
2018-10-12T07:11:26.740Z,17.2
2018-10-12T07:12:15.982Z,17.2
2018-10-12T07:13:06.011Z,17.2
2018-10-12T07:13:57.529Z,17.2
2018-10-12T07:14:46.294Z,17.2
2018-10-12T07:15:36.715Z,17.2
2018-10-12T07:16:26.052Z,17.2
2018-10-12T07:17:17.160Z,17.2
2018-10-12T07:18:07.725Z,17.2
2018-10-12T07:18:55.884Z,17.2
2018-10-12T07:19:48.791Z,17.3
2018-10-12T07:20:36.664Z,17.2
2018-10-12T07:21:26.690Z,17.2
2018-10-12T07:22:16.105Z,17.3
2018-10-12T07:23:08.121Z,17.2
2018-10-12T07:23:56.565Z,17.2
2018-10-12T07:24:47.218Z,17.2
2018-10-12T07:25:37.069Z,17.2
2018-10-12T07:26:26.748Z,17.3
2018-10-12T07:27:16.888Z,17.3
2018-10-12T07:28:06.325Z,17.3
2018-10-12T07:28:57.803Z,17.2
2018-10-12T07:29:48.063Z,17.3
2018-10-12T07:30:37.625Z,17.2
2018-10-12T07:31:27.536Z,17.2
2018-10-12T07:32:17.452Z,17.3
2018-10-12T07:33:08.090Z,17.2
2018-10-12T07:33:57.599Z,17.2
2018-10-12T07:34:47.388Z,17.2
2018-10-12T07:35:38.534Z,17.2
2018-10-12T07:36:27.829Z,17.3
2018-10-12T07:37:19.738Z,17.3
2018-10-12T07:38:08.262Z,17.3
2018-10-12T07:38:57.983Z,17.2
2018-10-12T07:39:47.817Z,17.2
2018-10-12T07:40:39.407Z,17.3
2018-10-12T07:41:28.119Z,17.3
2018-10-12T07:42:18.661Z,17.3
2018-10-12T07:43:08.167Z,17.3
2018-10-12T07:43:57.439Z,17.3
2018-10-12T07:44:48.644Z,17.3
2018-10-12T07:45:39.507Z,17.3
2018-10-12T07:46:29.868Z,17.3
2018-10-12T07:47:20.506Z,17.3
2018-10-12T07:48:08.991Z,17.3
2018-10-12T07:48:58.109Z,17.2
2018-10-12T07:49:48.504Z,17.3
2018-10-12T07:50:39.004Z,17.3
2018-10-12T07:51:28.593Z,17.3
2018-10-12T07:52:18.671Z,17.3
2018-10-12T07:53:08.896Z,17.3
2018-10-12T07:53:59.606Z,17.3
2018-10-12T07:54:49.101Z,17.3
2018-10-12T07:55:39.821Z,17.3
2018-10-12T07:56:29.809Z,17.3
2018-10-12T07:57:19.623Z,17.3
2018-10-12T07:58:09.391Z,17.3
2018-10-12T07:59:00.841Z,17.3
2018-10-12T07:59:50.338Z,17.3
2018-10-12T08:00:41.404Z,17.3
2018-10-12T08:01:30.288Z,17.3
2018-10-12T08:02:20.359Z,17.3
2018-10-12T08:03:09.737Z,17.3
2018-10-12T08:03:59.788Z,17.3
2018-10-12T08:04:50.153Z,17.3
2018-10-12T08:05:40.077Z,17.3
2018-10-12T08:06:31.500Z,17.3
2018-10-12T08:07:20.578Z,17.3
2018-10-12T08:08:10.106Z,17.3
2018-10-12T08:09:00.445Z,17.3
2018-10-12T08:09:52.071Z,17.3
2018-10-12T08:10:41.543Z,17.3
2018-10-12T08:11:30.679Z,17.3
2018-10-12T08:12:19.880Z,17.3
2018-10-12T08:13:11.031Z,17.3
2018-10-12T08:14:01.887Z,17.3
2018-10-12T08:14:50.917Z,17.3
2018-10-12T08:15:41.490Z,17.3
2018-10-12T08:16:30.353Z,17.3
2018-10-12T08:17:21.015Z,17.3
2018-10-12T08:18:11.378Z,17.3
2018-10-12T08:19:01.742Z,17.3
2018-10-12T08:19:50.997Z,17.3
2018-10-12T08:20:42.150Z,17.3
2018-10-12T08:21:31.595Z,17.3
2018-10-12T08:22:21.722Z,17.3
2018-10-12T08:23:11.749Z,17.3
2018-10-12T08:24:01.061Z,17.3
2018-10-12T08:24:52.441Z,17.3
2018-10-12T08:25:41.852Z,17.3
2018-10-12T08:26:32.593Z,17.3
2018-10-12T08:27:21.504Z,17.3
2018-10-12T08:28:11.591Z,17.3
2018-10-12T08:29:01.361Z,17.3
2018-10-12T08:29:52.112Z,17.3
2018-10-12T08:30:41.231Z,17.3
2018-10-12T08:31:32.930Z,17.3
2018-10-12T08:32:21.964Z,17.3
2018-10-12T08:33:11.664Z,17.3
2018-10-12T08:34:01.514Z,17.3
2018-10-12T08:34:51.593Z,17.3
2018-10-12T08:35:43.007Z,17.3
2018-10-12T08:36:32.963Z,17.3
2018-10-12T08:37:22.837Z,17.3
2018-10-12T08:38:12.635Z,17.3
2018-10-12T08:39:02.214Z,17.3
2018-10-12T08:39:52.298Z,17.3
2018-10-12T08:40:41.826Z,17.3
2018-10-12T08:41:32.869Z,17.3
2018-10-12T08:42:23.481Z,17.3
2018-10-12T08:43:12.492Z,17.3
2018-10-12T08:44:03.394Z,17.3
2018-10-12T08:44:54.106Z,17.3
2018-10-12T08:45:42.436Z,17.3
2018-10-12T08:46:32.976Z,17.3
2018-10-12T08:47:24.072Z,17.3
2018-10-12T08:48:13.654Z,17.3
2018-10-12T08:49:02.943Z,17.3
2018-10-12T08:49:52.785Z,17.3
2018-10-12T08:50:43.587Z,17.3
2018-10-12T08:51:34.433Z,17.3
2018-10-12T08:52:23.638Z,17.3
2018-10-12T09:08:57.371Z,17.3
2018-10-12T09:09:47.774Z,17.3
2018-10-12T09:10:37.162Z,17.3
2018-10-12T09:11:26.975Z,17.3
2018-10-12T09:12:17.311Z,17.3
2018-10-12T09:13:07.122Z,17.3
2018-10-12T09:13:57.041Z,17.3
2018-10-12T09:14:47.301Z,17.3
2018-10-12T09:15:36.984Z,17.3
2018-10-12T09:16:28.415Z,17.3
2018-10-12T09:17:17.105Z,17.3
2018-10-12T09:18:06.961Z,17.3
2018-10-12T09:18:58.328Z,17.3
2018-10-12T09:19:46.430Z,17.3
2018-10-12T09:20:41.162Z,17.3
2018-10-12T09:21:26.536Z,17.3
2018-10-12T09:22:17.159Z,17.3
2018-10-12T09:23:06.734Z,17.3
2018-10-12T09:23:57.289Z,17.3
2018-10-12T09:24:48.289Z,17.3
2018-10-12T09:25:37.023Z,17.3
2018-10-12T09:26:26.795Z,17.3
2018-10-12T09:27:19.400Z,17.3
2018-10-12T09:28:07.675Z,17.3
2018-10-12T09:28:57.443Z,17.3
2018-10-12T09:29:46.941Z,17.3
2018-10-12T09:30:38.730Z,17.3
2018-10-12T09:31:27.342Z,17.3
2018-10-12T09:32:18.245Z,17.3
2018-10-12T09:33:08.641Z,17.3
2018-10-12T09:33:58.137Z,17.3
2018-10-12T09:34:47.410Z,17.3
2018-10-12T09:35:37.110Z,17.3
2018-10-12T09:36:28.746Z,17.3
2018-10-12T09:37:19.495Z,17.3
2018-10-12T09:38:09.183Z,17.3
2018-10-12T09:38:58.185Z,17.3
2018-10-12T09:39:48.849Z,17.3
2018-10-12T09:40:38.603Z,17.3
2018-10-12T09:41:29.739Z,17.3
2018-10-12T09:42:18.756Z,17.3
2018-10-12T09:43:09.171Z,17.3
2018-10-12T09:43:57.394Z,17.3
2018-10-12T09:44:48.090Z,17.3
2018-10-12T09:45:39.567Z,17.3
2018-10-12T09:46:28.699Z,17.3
2018-10-12T09:47:19.452Z,17.3
2018-10-12T09:48:08.034Z,17.3
2018-10-12T09:48:58.893Z,17.3
2018-10-12T09:49:48.706Z,17.3
2018-10-12T09:50:39.565Z,17.3
2018-10-12T09:51:28.721Z,17.3
2018-10-12T09:52:18.897Z,17.3
2018-10-12T09:53:09.267Z,17.3
2018-10-12T09:53:59.303Z,17.3
2018-10-12T09:54:49.166Z,17.3
2018-10-12T09:55:39.402Z,17.4
2018-10-12T09:56:30.611Z,17.3
2018-10-12T09:57:18.980Z,17.3
2018-10-12T09:58:09.612Z,17.4
2018-10-12T09:58:59.424Z,17.3
2018-10-12T09:59:50.144Z,17.3
2018-10-12T10:00:39.795Z,17.3
2018-10-12T10:01:30.707Z,17.3
2018-10-12T10:02:22.236Z,17.4
2018-10-12T10:03:09.812Z,17.3
2018-10-12T10:04:00.101Z,17.4
2018-10-12T10:04:49.956Z,17.3
2018-10-12T10:05:40.104Z,17.4
2018-10-12T10:06:30.573Z,17.4
2018-10-12T10:07:20.697Z,17.4
2018-10-12T10:08:12.531Z,17.3
2018-10-12T10:09:02.789Z,17.3
2018-10-12T10:09:51.018Z,17.4
2018-10-12T10:10:39.836Z,17.4
2018-10-12T10:11:30.335Z,17.4
2018-10-12T10:12:20.981Z,17.4
2018-10-12T10:13:10.190Z,17.4
2018-10-12T10:14:02.611Z,17.4
2018-10-12T10:14:50.891Z,17.4
2018-10-12T10:15:41.361Z,17.4
2018-10-12T10:16:31.503Z,17.4
2018-10-12T10:17:21.691Z,17.4
2018-10-12T10:18:11.488Z,17.4
2018-10-12T10:19:01.998Z,17.4
2018-10-12T10:19:51.295Z,17.4
2018-10-12T10:20:41.337Z,17.4
2018-10-12T10:21:31.153Z,17.4
2018-10-12T10:22:21.387Z,17.4
2018-10-12T10:23:11.815Z,17.4
2018-10-12T10:24:01.267Z,17.4
2018-10-12T10:24:51.483Z,17.4
2018-10-12T10:25:41.922Z,17.4
2018-10-12T10:26:32.878Z,17.4
2018-10-12T10:27:21.960Z,17.4
2018-10-12T10:28:12.654Z,17.4
2018-10-12T10:29:02.416Z,17.4
2018-10-12T10:29:52.312Z,17.4
2018-10-12T10:30:42.325Z,17.4
2018-10-12T10:31:30.952Z,17.4
2018-10-12T10:32:23.985Z,17.4
2018-10-12T10:33:12.747Z,17.4
2018-10-12T10:34:03.595Z,17.4
2018-10-12T10:34:52.074Z,17.4
2018-10-12T10:35:43.251Z,17.4
2018-10-12T10:36:32.611Z,17.4
2018-10-12T10:37:23.597Z,17.4
2018-10-12T10:38:12.550Z,17.4
2018-10-12T10:39:04.474Z,17.4
2018-10-12T10:39:51.867Z,17.4
2018-10-12T10:40:42.369Z,17.4
2018-10-12T10:41:33.610Z,17.4
2018-10-12T10:42:23.700Z,17.4
2018-10-12T10:43:12.964Z,17.4
2018-10-12T10:44:02.711Z,17.4
2018-10-12T10:44:53.328Z,17.4
2018-10-12T10:45:42.831Z,17.4
2018-10-12T10:46:34.759Z,17.4
2018-10-12T10:47:23.511Z,17.4
2018-10-12T10:48:13.896Z,17.4
2018-10-12T10:49:02.883Z,17.4
2018-10-12T10:49:53.168Z,17.4
2018-10-12T10:50:43.301Z,17.4
2018-10-12T10:51:34.011Z,17.4
2018-10-12T10:52:23.956Z,17.4
2018-10-12T10:53:13.443Z,17.4
2018-10-12T10:54:03.560Z,17.4
2018-10-12T10:54:53.549Z,17.4
2018-10-12T10:55:44.193Z,17.4
2018-10-12T10:56:33.968Z,17.4
2018-10-12T10:57:24.733Z,17.4
2018-10-12T10:58:14.839Z,17.4
2018-10-12T10:59:03.334Z,17.4
2018-10-12T10:59:54.766Z,17.4
2018-10-12T11:00:44.538Z,17.4
2018-10-12T11:01:34.640Z,17.4
2018-10-12T11:02:24.053Z,17.4
2018-10-12T11:03:15.293Z,17.4
2018-10-12T11:04:03.957Z,17.4
2018-10-12T11:04:54.342Z,17.4
2018-10-12T11:05:44.891Z,17.4
2018-10-12T11:06:35.356Z,17.4
2018-10-12T11:07:25.060Z,17.4
2018-10-12T11:08:15.397Z,17.4
2018-10-12T11:09:04.993Z,17.4
2018-10-12T11:09:55.223Z,17.4
2018-10-12T11:10:45.323Z,17.4
2018-10-12T11:11:34.497Z,17.4
2018-10-12T11:12:27.765Z,17.4
2018-10-12T11:13:14.552Z,17.4
2018-10-12T11:14:04.709Z,17.4
2018-10-12T11:14:55.302Z,17.4
2018-10-12T11:15:44.490Z,17.4
2018-10-12T11:16:35.412Z,17.4
2018-10-12T11:17:25.217Z,17.4
2018-10-12T11:18:16.097Z,17.4
2018-10-12T11:19:05.391Z,17.4
2018-10-12T11:19:55.474Z,17.4
2018-10-12T11:20:44.605Z,17.4
2018-10-12T11:21:35.684Z,17.4
2018-10-12T11:22:26.620Z,17.4
2018-10-12T11:23:16.399Z,17.4
2018-10-12T11:24:07.110Z,17.4
2018-10-12T11:24:56.579Z,17.4
2018-10-12T11:25:46.907Z,17.4
2018-10-12T11:26:38.232Z,17.4
2018-10-12T11:27:26.569Z,17.4
2018-10-12T11:28:17.668Z,17.4
2018-10-12T11:29:06.827Z,17.4
2018-10-12T11:29:56.354Z,17.4
2018-10-12T11:30:46.918Z,17.4
2018-10-12T11:31:37.002Z,17.4
2018-10-12T11:32:26.336Z,17.4
2018-10-12T11:33:17.870Z,17.4
2018-10-12T11:34:06.470Z,17.4
2018-10-12T11:34:56.781Z,17.4
2018-10-12T11:35:46.851Z,17.4
2018-10-12T11:36:36.396Z,17.4
2018-10-12T11:37:26.468Z,17.4
2018-10-12T11:38:17.580Z,17.4
2018-10-12T11:39:07.097Z,17.4
2018-10-12T11:39:56.933Z,17.4
2018-10-12T11:40:48.253Z,17.4
2018-10-12T11:41:37.853Z,17.4
2018-10-12T11:42:26.970Z,17.4
2018-10-12T11:43:17.471Z,17.4
2018-10-12T11:44:07.473Z,17.4
2018-10-12T11:44:59.483Z,17.4
2018-10-12T11:45:47.615Z,17.4
2018-10-12T11:46:37.205Z,17.4
2018-10-12T11:47:28.617Z,17.4
2018-10-12T11:48:17.518Z,17.4
2018-10-12T11:49:07.643Z,17.4
2018-10-12T11:49:56.810Z,17.4
2018-10-12T11:50:47.385Z,17.4
2018-10-12T11:51:38.805Z,17.4
2018-10-12T11:52:28.650Z,17.4
2018-10-12T11:53:18.082Z,17.4
2018-10-12T11:54:09.250Z,17.4
2018-10-12T11:54:58.819Z,17.4
2018-10-12T11:55:48.847Z,17.4
2018-10-12T11:56:39.475Z,17.4
2018-10-12T11:57:28.752Z,17.4
2018-10-12T11:58:19.017Z,17.4
2018-10-12T11:59:09.331Z,17.4